createdAt,value
2019-01-13T00:01:33.988Z,72.90
2019-01-13T00:04:15.480Z,73.00
2019-01-13T00:07:06.498Z,73.00
2019-01-13T00:09:50.159Z,72.90
2019-01-13T00:12:41.151Z,73.30
2019-01-13T00:15:32.265Z,73.40
2019-01-13T00:18:23.345Z,73.40
2019-01-13T00:21:07.366Z,73.40
2019-01-13T00:24:11.035Z,73.00
2019-01-13T00:26:56.755Z,73.00
2019-01-13T00:29:47.728Z,72.90
2019-01-13T00:32:30.571Z,72.50
2019-01-13T00:35:33.017Z,72.30
2019-01-13T00:38:25.650Z,72.70
2019-01-13T00:41:16.638Z,72.50
2019-01-13T00:44:00.189Z,72.30
2019-01-13T00:46:42.231Z,72.40
2019-01-13T00:49:30.382Z,72.30
2019-01-13T00:52:21.571Z,72.50
2019-01-13T00:58:53.189Z,73.10
2019-01-13T01:01:40.859Z,74.00
2019-01-13T01:04:34.419Z,73.70
2019-01-13T01:11:09.589Z,73.30
2019-01-13T01:13:51.092Z,73.10
2019-01-13T01:19:51.384Z,73.30
2019-01-13T01:22:42.406Z,72.90
2019-01-13T01:25:25.827Z,72.70
2019-01-13T01:28:07.716Z,72.00
2019-01-13T01:31:18.017Z,72.20
2019-01-13T01:33:59.632Z,72.70
2019-01-13T01:36:50.701Z,72.80
2019-01-13T01:39:32.573Z,72.70
2019-01-13T01:42:23.593Z,72.90
2019-01-13T01:45:06.731Z,72.80
2019-01-13T01:47:49.065Z,73.40
2019-01-13T01:50:40.084Z,72.80
2019-01-13T01:53:21.885Z,72.70
2019-01-13T01:56:06.373Z,72.50
2019-01-13T01:58:57.531Z,72.80
2019-01-13T02:01:39.389Z,72.90
2019-01-13T02:04:30.432Z,73.00
2019-01-13T02:07:15.151Z,72.40
2019-01-13T02:10:09.588Z,72.30
2019-01-13T02:12:52.759Z,71.80
2019-01-13T02:15:43.868Z,71.60
2019-01-13T02:18:26.205Z,71.20
2019-01-13T02:21:10.707Z,72.00
2019-01-13T02:24:01.935Z,71.90
2019-01-13T02:26:43.937Z,71.80
2019-01-13T02:42:43.521Z,72.30
2019-01-13T02:45:34.637Z,72.10
2019-01-13T02:48:16.408Z,72.10
2019-01-13T02:50:58.277Z,71.60
2019-01-13T02:53:50.928Z,71.10
2019-01-13T02:56:35.941Z,71.70
2019-01-13T02:59:27.159Z,71.90
2019-01-13T03:02:09.640Z,72.00
2019-01-13T03:11:30.232Z,72.30
2019-01-13T03:24:15.266Z,70.20
2019-01-13T03:27:00.947Z,69.50
2019-01-13T03:29:48.297Z,69.20
2019-01-13T03:32:33.637Z,69.10
2019-01-13T03:36:20.211Z,68.90
2019-01-13T03:39:19.919Z,68.80
2019-01-13T03:49:14.108Z,68.60
2019-01-13T03:52:02.277Z,68.30
2019-01-13T03:55:32.987Z,68.50
2019-01-13T03:58:17.651Z,68.60
2019-01-13T04:01:08.591Z,69.00
2019-01-13T04:03:51.863Z,69.30
2019-01-13T04:06:42.802Z,70.30
2019-01-13T04:09:26.573Z,71.00
2019-01-13T04:12:17.554Z,71.40
2019-01-13T04:14:59.662Z,71.50
2019-01-13T04:17:50.696Z,71.10
2019-01-13T04:20:32.696Z,71.00
2019-01-13T04:23:14.360Z,71.30
2019-01-13T04:26:05.314Z,71.20
2019-01-13T04:28:49.061Z,70.60
2019-01-13T04:31:58.951Z,70.40
2019-01-13T04:34:42.416Z,69.80
2019-01-13T04:37:33.373Z,69.30
2019-01-13T04:40:14.974Z,69.50
2019-01-13T04:43:05.915Z,69.40
2019-01-13T04:49:32.002Z,69.30
2019-01-13T04:52:15.444Z,69.30
2019-01-13T04:54:57.112Z,69.10
2019-01-13T04:57:48.102Z,69.00
2019-01-13T05:00:32.658Z,69.30
2019-01-13T05:03:14.184Z,69.10
2019-01-13T05:06:05.148Z,69.00
2019-01-13T05:08:46.854Z,69.40
2019-01-13T05:11:37.862Z,69.00
2019-01-13T05:14:19.726Z,69.10
2019-01-13T05:17:10.945Z,69.10
2019-01-13T05:19:52.467Z,68.90
2019-01-13T05:22:43.634Z,68.20
2019-01-13T05:25:25.203Z,68.10
2019-01-13T05:28:07.793Z,67.90
2019-01-13T05:30:58.861Z,67.50
2019-01-13T05:33:40.617Z,67.10
2019-01-13T05:36:31.552Z,67.60
2019-01-13T05:39:13.453Z,67.20
2019-01-13T05:42:16.179Z,67.00
2019-01-13T05:44:57.872Z,66.70
2019-01-13T05:47:48.830Z,66.60
2019-01-13T05:50:30.618Z,67.10
2019-01-13T05:53:21.623Z,66.70
2019-01-13T05:56:03.577Z,65.90
2019-01-13T05:58:54.500Z,66.60
2019-01-13T06:01:36.488Z,66.90
2019-01-13T06:04:27.497Z,66.70
2019-01-13T06:07:09.496Z,66.50
2019-01-13T06:10:00.453Z,66.60
2019-01-13T06:12:42.080Z,67.00
2019-01-13T06:15:34.868Z,67.50
2019-01-13T06:18:18.106Z,67.50
2019-01-13T06:21:09.101Z,67.70
2019-01-13T06:24:09.639Z,67.80
2019-01-13T06:27:00.581Z,67.80
2019-01-13T06:29:42.556Z,67.80
2019-01-13T06:32:33.479Z,68.40
2019-01-13T06:35:15.376Z,68.30
2019-01-13T06:38:06.398Z,68.90
2019-01-13T06:40:49.765Z,67.50
2019-01-13T06:43:40.694Z,67.00
2019-01-13T06:46:24.020Z,67.20
2019-01-13T06:49:15.023Z,66.60
2019-01-13T06:51:57.007Z,66.30
2019-01-13T06:54:47.954Z,66.50
2019-01-13T06:57:29.683Z,66.30
2019-01-13T07:00:01.569Z,66.30
2019-01-13T07:02:45.718Z,66.20
2019-01-13T07:05:36.655Z,65.40
2019-01-13T07:08:19.955Z,65.50
2019-01-13T07:11:10.924Z,65.40
2019-01-13T07:13:52.609Z,65.90
2019-01-13T07:16:43.569Z,65.90
2019-01-13T07:19:27.076Z,66.40
2019-01-13T07:22:18.147Z,67.60
2019-01-13T07:24:59.943Z,67.80
2019-01-13T07:27:43.505Z,67.40
2019-01-13T07:30:27.757Z,66.80
2019-01-13T07:33:11.271Z,66.70
2019-01-13T07:36:02.208Z,67.10
2019-01-13T07:38:45.591Z,66.80
2019-01-13T07:41:36.509Z,66.70
2019-01-13T07:44:18.017Z,67.10
2019-01-13T07:47:08.970Z,67.10
2019-01-13T07:49:50.659Z,66.70
2019-01-13T07:52:41.623Z,66.50
2019-01-13T07:55:25.143Z,66.60
2019-01-13T07:58:07.091Z,66.50
2019-01-13T08:00:58.039Z,66.20
2019-01-13T08:03:41.819Z,65.70
2019-01-13T08:06:32.729Z,65.70
2019-01-13T08:09:14.659Z,65.50
2019-01-13T08:12:05.655Z,65.60
2019-01-13T08:14:47.360Z,65.40
2019-01-13T08:17:38.329Z,65.30
2019-01-13T08:20:25.399Z,65.70
2019-01-13T08:23:06.850Z,65.70
2019-01-13T08:25:57.784Z,65.60
2019-01-13T08:28:39.258Z,66.10
2019-01-13T08:31:30.239Z,66.50
2019-01-13T08:34:11.653Z,66.70
2019-01-13T08:37:02.582Z,66.40
2019-01-13T08:39:44.237Z,66.10
2019-01-13T08:42:35.182Z,66.50
2019-01-13T08:45:17.099Z,66.70
2019-01-13T08:48:00.597Z,67.00
2019-01-13T08:50:51.562Z,67.40
2019-01-13T08:53:33.131Z,67.50
2019-01-13T08:56:24.116Z,66.60
2019-01-13T08:59:05.515Z,66.50
2019-01-13T09:01:56.687Z,66.10
2019-01-13T09:04:38.451Z,65.90
2019-01-13T09:07:22.001Z,64.80
2019-01-13T09:10:14.582Z,65.00
2019-01-13T09:12:57.103Z,65.40
2019-01-13T09:15:48.080Z,65.00
2019-01-13T09:18:29.680Z,64.60
2019-01-13T09:21:20.606Z,65.30
2019-01-13T09:24:02.630Z,65.00
2019-01-13T09:26:53.543Z,65.10
2019-01-13T09:29:42.446Z,64.80
2019-01-13T09:32:29.397Z,64.60
2019-01-13T09:35:12.646Z,63.70
2019-01-13T09:38:03.600Z,63.00
2019-01-13T09:40:45.028Z,63.80
2019-01-13T09:43:26.601Z,64.60
2019-01-13T09:46:17.572Z,65.00
2019-01-13T09:48:59.352Z,64.40
2019-01-13T09:55:17.576Z,64.60
2019-01-13T09:58:41.268Z,65.00
2019-01-13T10:01:46.019Z,64.40
2019-01-13T10:07:47.321Z,63.70
2019-01-13T10:10:55.651Z,63.80
2019-01-13T10:13:41.861Z,63.30
2019-01-13T10:16:26.092Z,62.90
2019-01-13T10:19:12.835Z,62.10
2019-01-13T10:22:03.013Z,62.60
2019-01-13T10:24:47.858Z,62.50
2019-01-13T10:27:38.996Z,62.90
2019-01-13T10:30:23.296Z,63.00
2019-01-13T10:33:14.326Z,63.10
2019-01-13T10:35:56.041Z,63.00
2019-01-13T10:38:46.992Z,62.90
2019-01-13T10:44:54.900Z,63.50
2019-01-13T10:47:36.513Z,63.50
2019-01-13T10:50:23.912Z,64.50
2019-01-13T10:53:15.013Z,65.60
2019-01-13T10:55:57.102Z,65.60
2019-01-13T10:58:38.938Z,65.80
2019-01-13T11:01:29.848Z,66.20
2019-01-13T11:04:11.751Z,66.20
2019-01-13T11:07:02.713Z,66.10
2019-01-13T11:09:44.100Z,65.80
2019-01-13T11:12:35.159Z,65.00
2019-01-13T11:15:21.405Z,65.60
2019-01-13T11:18:09.298Z,65.40
2019-01-13T11:20:51.752Z,65.70
2019-01-13T11:23:42.698Z,65.90
2019-01-13T11:26:24.553Z,65.80
2019-01-13T11:29:06.330Z,65.40
2019-01-13T11:31:57.251Z,65.20
2019-01-13T11:34:38.843Z,65.20
2019-01-13T11:37:31.251Z,64.50
2019-01-13T11:40:23.651Z,64.60
2019-01-13T11:43:14.580Z,64.10
2019-01-13T11:45:58.021Z,64.90
2019-01-13T11:48:48.985Z,65.00
2019-01-13T11:51:30.604Z,65.00
2019-01-13T11:54:21.560Z,65.80
2019-01-13T11:57:05.189Z,66.60
2019-01-13T11:59:56.166Z,67.80
2019-01-13T12:02:38.681Z,67.60
2019-01-13T12:05:29.945Z,67.20
2019-01-13T12:08:12.115Z,67.40
2019-01-13T12:11:03.151Z,67.80
2019-01-13T12:13:45.034Z,67.20
2019-01-13T12:16:35.952Z,67.40
2019-01-13T12:19:17.668Z,67.20
2019-01-13T12:22:08.578Z,66.60
2019-01-13T12:24:50.676Z,66.60
2019-01-13T12:27:34.137Z,66.90
2019-01-13T12:30:18.863Z,67.30
2019-01-13T12:32:51.061Z,67.20
2019-01-13T12:35:32.626Z,66.70
2019-01-13T12:38:23.663Z,66.30
2019-01-13T12:41:05.484Z,65.80
2019-01-13T12:43:56.402Z,65.30
2019-01-13T12:46:38.076Z,65.00
2019-01-13T12:49:29.094Z,65.40
2019-01-13T12:52:10.528Z,66.00
2019-01-13T12:55:01.544Z,67.90
2019-01-13T12:57:43.070Z,69.40
2019-01-13T13:00:24.502Z,69.80
2019-01-13T13:03:15.410Z,69.10
2019-01-13T13:05:59.002Z,68.00
2019-01-13T13:08:49.968Z,68.30
2019-01-13T13:11:31.687Z,68.70
2019-01-13T13:14:23.705Z,68.80
2019-01-13T13:17:08.094Z,68.80
2019-01-13T13:19:52.526Z,69.20
2019-01-13T13:22:43.450Z,68.90
2019-01-13T13:25:31.914Z,68.70
2019-01-13T13:28:19.771Z,68.70
2019-01-13T13:31:03.279Z,68.50
2019-01-13T13:33:54.203Z,68.50
2019-01-13T13:36:37.772Z,69.10
2019-01-13T13:39:28.678Z,69.40
2019-01-13T13:42:11.046Z,69.80
2019-01-13T13:45:02.043Z,70.40
2019-01-13T13:47:45.329Z,70.90
2019-01-13T13:50:36.378Z,70.80
2019-01-13T13:53:18.141Z,70.70
2019-01-13T13:56:09.317Z,70.80
2019-01-13T13:58:51.283Z,71.40
2019-01-13T14:01:42.792Z,71.70
2019-01-13T14:04:15.791Z,72.30
2019-01-13T14:06:58.001Z,72.40
2019-01-13T14:09:49.013Z,72.10
2019-01-13T14:12:31.327Z,72.00
2019-01-13T14:15:22.263Z,71.90
2019-01-13T14:18:06.162Z,72.90
2019-01-13T14:24:05.091Z,73.90
2019-01-13T14:26:47.984Z,73.70
2019-01-13T14:29:32.929Z,73.90
2019-01-13T14:32:15.095Z,74.10
2019-01-13T14:35:06.763Z,73.90
2019-01-13T14:37:55.538Z,74.30
2019-01-13T14:40:46.853Z,74.20
2019-01-13T14:43:28.658Z,73.70
2019-01-13T14:46:19.806Z,73.70
2019-01-13T14:49:01.855Z,74.00
2019-01-13T14:51:53.674Z,74.50
2019-01-13T14:54:39.493Z,74.70
2019-01-13T14:57:21.279Z,74.70
2019-01-13T15:00:24.154Z,74.70
2019-01-13T15:03:07.696Z,74.30
2019-01-13T15:05:58.641Z,74.40
2019-01-13T15:08:40.099Z,74.50
2019-01-13T15:11:31.054Z,74.00
2019-01-13T15:14:13.734Z,74.00
2019-01-13T15:17:04.680Z,74.10
2019-01-13T15:19:46.463Z,74.90
2019-01-13T15:22:37.359Z,74.70
2019-01-13T15:25:25.497Z,74.90
2019-01-13T15:28:18.018Z,75.00
2019-01-13T15:31:00.055Z,74.50
2019-01-13T15:33:42.036Z,75.40
2019-01-13T15:36:33.030Z,75.50
2019-01-13T15:39:14.358Z,75.50
2019-01-13T15:42:05.328Z,75.30
2019-01-13T15:44:47.477Z,75.10
2019-01-13T15:47:39.021Z,75.30
2019-01-13T15:50:22.816Z,75.90
2019-01-13T15:53:13.729Z,76.40
2019-01-13T15:56:02.587Z,76.60
2019-01-13T15:58:53.530Z,76.90
2019-01-13T16:01:35.405Z,76.80
2019-01-13T16:04:26.505Z,76.70
2019-01-13T16:07:10.040Z,76.40
2019-01-13T16:10:01.046Z,76.20
2019-01-13T16:12:42.853Z,75.70
2019-01-13T16:15:34.660Z,75.90
2019-01-13T16:18:36.322Z,76.10
2019-01-13T16:21:27.291Z,76.40
2019-01-13T16:24:09.147Z,75.80
2019-01-13T16:27:00.089Z,75.80
2019-01-13T16:29:42.115Z,76.00
2019-01-13T16:36:23.268Z,75.80
2019-01-13T16:39:07.702Z,76.10
2019-01-13T16:41:49.457Z,76.40
2019-01-13T16:44:40.503Z,76.30
2019-01-13T16:47:22.153Z,76.10
2019-01-13T16:50:04.409Z,76.10
2019-01-13T16:52:56.941Z,75.80
2019-01-13T16:55:40.045Z,75.50
2019-01-13T16:58:32.274Z,75.20
2019-01-13T17:01:16.517Z,74.90
2019-01-13T17:04:07.907Z,74.60
2019-01-13T17:06:53.583Z,75.10
2019-01-13T17:09:46.692Z,74.90
2019-01-13T17:12:28.972Z,75.00
2019-01-13T17:15:12.921Z,74.80
2019-01-13T17:21:26.940Z,74.50
2019-01-13T17:24:10.955Z,75.10
2019-01-13T17:26:54.252Z,75.40
2019-01-13T17:29:46.633Z,74.70
2019-01-13T17:32:28.261Z,74.10
2019-01-13T17:35:20.439Z,73.20
2019-01-13T17:37:54.419Z,73.60
2019-01-13T17:40:46.399Z,73.80
2019-01-13T17:43:29.107Z,73.70
2019-01-13T17:46:11.951Z,73.40
2019-01-13T17:49:03.913Z,73.60
2019-01-13T18:09:11.396Z,75.40
2019-01-13T18:12:21.274Z,75.50
2019-01-13T18:15:13.517Z,75.60
2019-01-13T18:17:56.735Z,76.10
2019-01-13T18:21:21.318Z,76.10
2019-01-13T18:24:31.836Z,76.00
2019-01-13T18:27:22.164Z,75.60
2019-01-13T18:34:19.538Z,75.60
2019-01-13T18:37:29.050Z,75.80
2019-01-13T18:40:28.532Z,76.00
2019-01-13T18:43:12.053Z,76.00
2019-01-13T18:46:03.528Z,76.20
2019-01-13T18:48:45.580Z,75.80
2019-01-13T18:51:47.716Z,76.20
2019-01-13T18:54:38.793Z,76.60
2019-01-13T18:57:25.391Z,77.00
2019-01-13T19:00:19.584Z,76.80
2019-01-13T19:03:03.004Z,77.10
2019-01-13T19:05:54.025Z,77.20
2019-01-13T19:08:37.395Z,77.20
2019-01-13T19:11:49.436Z,77.00
2019-01-13T19:14:58.705Z,77.10
2019-01-13T19:20:52.322Z,77.00
2019-01-13T19:23:35.681Z,77.30
2019-01-13T19:26:20.701Z,77.40
2019-01-13T19:29:11.720Z,77.20
2019-01-13T19:31:55.974Z,77.90
2019-01-13T19:34:46.109Z,77.90
2019-01-13T19:37:27.964Z,77.70
2019-01-13T19:40:11.905Z,78.00
2019-01-13T19:42:53.546Z,78.20
2019-01-13T19:45:44.535Z,78.30
2019-01-13T19:48:27.629Z,77.70
2019-01-13T19:51:18.579Z,77.50
2019-01-13T19:54:00.217Z,76.70
2019-01-13T19:56:51.188Z,76.90
2019-01-13T19:59:34.586Z,76.90
2019-01-13T20:02:25.525Z,76.40
2019-01-13T20:05:11.811Z,76.60
2019-01-13T20:07:59.863Z,76.20
2019-01-13T20:10:43.823Z,76.50
2019-01-13T20:13:34.851Z,76.70
2019-01-13T20:16:16.750Z,76.90
2019-01-13T20:18:58.661Z,77.20
2019-01-13T20:21:40.491Z,76.80
2019-01-13T20:24:31.439Z,77.00
2019-01-13T20:27:13.045Z,76.70
2019-01-13T20:33:30.909Z,75.90
2019-01-13T20:36:21.874Z,76.60
2019-01-13T20:39:06.938Z,76.60
2019-01-13T20:41:57.856Z,76.40
2019-01-13T20:44:39.469Z,75.80
2019-01-13T20:47:30.385Z,76.10
2019-01-13T20:50:13.160Z,76.90
2019-01-13T20:53:04.102Z,77.40
2019-01-13T20:55:45.884Z,77.10
2019-01-13T20:58:27.637Z,77.30
2019-01-13T21:01:18.894Z,77.20
2019-01-13T21:04:00.710Z,77.50
2019-01-13T21:06:51.964Z,77.30
2019-01-13T21:09:33.732Z,77.00
2019-01-13T21:12:24.815Z,76.80
2019-01-13T21:15:09.233Z,76.20
2019-01-13T21:18:00.146Z,77.00
2019-01-13T21:20:42.157Z,76.70
2019-01-13T21:23:33.905Z,77.00
2019-01-13T21:26:17.390Z,76.80
2019-01-13T21:28:59.021Z,76.30
2019-01-13T21:31:49.944Z,76.00
2019-01-13T21:34:31.835Z,75.60
2019-01-13T21:40:24.217Z,75.50
2019-01-13T21:43:20.820Z,75.40
2019-01-13T21:46:03.521Z,75.20
2019-01-13T21:48:54.793Z,75.60
2019-01-13T21:51:36.470Z,74.90
2019-01-13T21:54:27.826Z,74.20
2019-01-13T21:57:12.255Z,74.40
2019-01-13T21:59:55.601Z,74.40
2019-01-13T22:02:46.749Z,73.90
2019-01-13T22:05:30.129Z,73.80
2019-01-13T22:08:21.352Z,74.20
2019-01-13T22:11:03.382Z,73.60
2019-01-13T22:14:24.665Z,73.40
2019-01-13T22:20:08.197Z,74.60
2019-01-13T22:22:50.763Z,74.50
2019-01-13T22:25:42.789Z,74.60
2019-01-13T22:28:24.632Z,74.30
2019-01-13T22:31:22.173Z,74.00
2019-01-13T22:34:20.112Z,74.30
2019-01-13T22:37:11.080Z,73.70
2019-01-13T22:39:52.985Z,73.40
2019-01-13T22:42:44.146Z,73.20
2019-01-13T22:45:27.514Z,73.90
2019-01-13T22:48:18.720Z,73.80
2019-01-13T22:51:01.426Z,73.70
2019-01-13T22:53:52.695Z,73.50
2019-01-13T22:56:36.955Z,73.00
2019-01-13T22:59:28.708Z,72.70
2019-01-13T23:02:13.702Z,72.90
2019-01-13T23:05:05.756Z,73.20
2019-01-13T23:07:48.723Z,73.40
2019-01-13T23:10:39.949Z,72.70
2019-01-13T23:13:21.778Z,72.50
2019-01-13T23:16:12.984Z,73.20
2019-01-13T23:18:55.008Z,73.50
2019-01-13T23:21:38.207Z,72.80
2019-01-13T23:24:19.544Z,73.00
2019-01-13T23:27:01.162Z,73.30
2019-01-13T23:29:52.186Z,73.70
2019-01-13T23:32:35.669Z,73.70
2019-01-13T23:35:17.701Z,73.90
2019-01-13T23:38:08.645Z,73.30
2019-01-13T23:40:50.241Z,73.20
2019-01-13T23:43:41.234Z,73.50
2019-01-13T23:46:22.706Z,73.60
2019-01-13T23:49:13.707Z,74.10
2019-01-13T23:51:55.476Z,74.20
2019-01-13T23:54:46.391Z,73.90
2019-01-13T23:57:29.805Z,73.60
